Aérodrome :
LOGIN :

S'inscrire | Disclaimer

   EN    FR    IT 

 










Légende :    VFR   VFR Marginal   IFR   IFR Intensif   IFR Très Intensif
Visi : 
Plafond : 
>= 8 km
>= 3000ft
5 à 8 km
1000 à 3000 ft
1500m à 5 km
500 à 1000 ft
800 à 1500m
200 à 500 ft
< 800m
< 200 ft
Symboles :   Orages  Brouillard  Fortes neiges  Fortes précipitations  Vent > 20 kt
SIGMETs :   Divers  Orages  Givrage  Turbulence  Onde Orograph.  Cendres Volcan.






- Altitude de l'aérodrome : 465 ft
- Code IATA : LEJ


EDDP - Leipzig Halle

METARs EXPIRÉS :
  • 011620Z 27010KT 9999 -RA FEW013TCU 16/14 Q1019 NOSIG
  • 012150Z 19007KT CAVOK 14/13 Q1023 NOSIG
  • 012120Z 18004KT 150V230 CAVOK 14/13 Q1022 NOSIG
  • 012050Z 16004KT 140V220 CAVOK 14/13 Q1022 NOSIG
  • 012020Z 21005KT CAVOK 15/13 Q1021 NOSIG
  • 010550Z 27012KT 8000 SHRA OVC009CB 17/16 Q1014 BECMG NSW
  • 011950Z 24005KT CAVOK 15/13 Q1021 NOSIG

TAF TAF EDDP
Valide du 01 à 18h jusqu'au 02 à 18h UTC


011700Z 0118/0218 28006KT 9999 SCT025
BECMG 0119/0121 21005KT
BECMG 0209/0211 15006KT



MET'MAP, la Météo Aéronautique d'un coup d'oeil ! - Copyright ORBIFLY Décembre 2007 - Disclaimer

ORBIFLY MET'MAP TEAM :

Programmation & Développement : Alexandra Zaïnal
Sur une idée originale de : Baudouin d'Aumeries
Soutien technique & logistique : Manuel Goepfert
Assistance : Marc-Olivier Méhu




SOURCES & CREDITS :

   NOAA